Time;durP1;ratioP1;P1;durP2;ratioP2;P2;SDS_P1;SDS_P2;PMS_P1;PMS_P2;Temp;Humidity;BMP_temperature;BMP_pressure;BME280_temperature;BME280_humidity;BME280_pressure;Samples;Min_cycle;Max_cycle;Signal;HPM_P1;HPM_P2
2023/08/15 00:00:41;;;;;;;4.63;2.38;;;;;;;15.18;67.25;99739.47;5027601;28;20052;-61
2023/08/15 00:03:07;;;;;;;3.85;2.67;;;;;;;15.13;67.34;99740.47;5021789;28;20045;-60
2023/08/15 00:05:37;;;;;;;3.17;2.40;;;;;;;15.12;67.33;99736.16;5027926;28;20041;-60
2023/08/15 00:08:03;;;;;;;6.97;2.70;;;;;;;15.08;67.43;99731.03;5027778;28;20041;-62
2023/08/15 00:10:30;;;;;;;3.05;2.38;;;;;;;15.06;67.68;99736.31;5024664;28;20056;-61
2023/08/15 00:12:57;;;;;;;5.82;2.95;;;;;;;15.05;67.53;99739.81;5027295;28;20057;-60
2023/08/15 00:15:24;;;;;;;5.22;2.38;;;;;;;15.04;68.00;99735.50;5020465;28;20519;-61
2023/08/15 00:17:50;;;;;;;5.10;3.08;;;;;;;15.01;68.18;99732.97;5025077;28;20053;-60
2023/08/15 00:20:17;;;;;;;5.18;2.80;;;;;;;14.98;68.22;99748.69;5033056;28;20044;-60
2023/08/15 00:22:45;;;;;;;3.13;2.70;;;;;;;14.97;68.35;99752.19;5027261;28;20490;-60
2023/08/15 00:25:14;;;;;;;6.40;2.47;;;;;;;14.94;68.19;99742.72;5021190;28;20717;-61
2023/08/15 00:27:43;;;;;;;4.07;2.15;;;;;;;14.94;68.09;99747.06;5026496;28;20045;-60
2023/08/15 00:30:12;;;;;;;4.10;2.70;;;;;;;14.92;67.76;99746.25;5026203;28;20050;-59
2023/08/15 00:32:40;;;;;;;6.28;1.75;;;;;;;14.92;68.29;99751.47;5026264;28;20517;-61
2023/08/15 00:35:11;;;;;;;4.15;2.80;;;;;;;14.89;68.54;99755.84;5019522;28;20069;-59
2023/08/15 00:37:40;;;;;;;3.95;2.42;;;;;;;14.86;68.06;99750.72;5026003;28;20418;-59
2023/08/15 00:40:09;;;;;;;4.95;2.38;;;;;;;14.85;68.34;99746.41;5011323;28;20541;-59
2023/08/15 00:42:37;;;;;;;6.10;2.88;;;;;;;14.83;68.29;99748.19;5019079;28;20139;-60
2023/08/15 00:45:07;;;;;;;6.20;3.75;;;;;;;14.81;68.74;99751.72;5028511;28;20047;-59
2023/08/15 00:47:37;;;;;;;5.80;3.33;;;;;;;14.78;68.71;99747.44;5030871;28;20065;-58
2023/08/15 00:50:08;;;;;;;5.38;1.92;;;;;;;14.77;68.78;99756.16;5034331;28;20462;-59
2023/08/15 00:52:37;;;;;;;5.60;3.05;;;;;;;14.76;68.37;99752.66;5025764;28;20128;-59
2023/08/15 00:55:07;;;;;;;7.07;3.60;;;;;;;14.75;69.00;99752.69;5023229;28;20050;-61
2023/08/15 00:57:36;;;;;;;5.65;3.58;;;;;;;14.73;69.26;99741.47;5026658;28;20457;-59
2023/08/15 01:00:06;;;;;;;6.22;3.38;;;;;;;14.72;69.00;99747.56;5026400;28;20043;-58
2023/08/15 01:02:34;;;;;;;5.00;3.70;;;;;;;14.70;69.51;99749.34;5026598;28;20045;-59
2023/08/15 01:05:01;;;;;;;3.15;2.67;;;;;;;14.68;69.57;99744.19;5026962;28;20134;-60
2023/08/15 01:07:28;;;;;;;5.03;3.13;;;;;;;14.68;68.98;99751.13;5025199;28;20077;-61
2023/08/15 01:09:54;;;;;;;4.55;3.25;;;;;;;14.67;69.13;99750.28;5011605;28;20584;-59
2023/08/15 01:15:04;;;;;;;4.18;2.15;;;;;;;14.63;69.01;99765.13;5079806;27;20399;-61
2023/08/15 01:17:37;;;;;;;9.40;2.60;;;;;;;14.63;69.67;99770.34;5028102;28;20045;-60
2023/08/15 01:20:08;;;;;;;6.03;2.30;;;;;;;14.61;69.72;99773.88;5032926;28;20049;-59
2023/08/15 01:22:40;;;;;;;6.93;2.33;;;;;;;14.59;70.23;99773.09;5048210;28;20056;-61
2023/08/15 01:25:07;;;;;;;8.43;2.10;;;;;;;14.54;69.38;99775.78;5033332;28;20045;-61
2023/08/15 01:27:34;;;;;;;7.25;2.45;;;;;;;14.52;70.06;99772.34;5042135;28;20041;-61
2023/08/15 01:30:01;;;;;;;5.43;2.28;;;;;;;14.50;69.89;99779.38;5050707;28;20049;-61
2023/08/15 01:37:53;;;;;;;6.10;4.20;;;;;;;14.45;70.42;99787.28;5057675;28;20963;-61
2023/08/15 01:40:22;;;;;;;5.72;4.07;;;;;;;14.44;70.18;99779.50;5011325;28;20116;-59
2023/08/15 01:42:51;;;;;;;8.10;4.13;;;;;;;14.42;70.14;99781.28;5001456;28;20104;-62
2023/08/15 01:45:18;;;;;;;7.15;3.78;;;;;;;14.42;70.25;99776.09;4997348;28;20071;-61
2023/08/15 01:47:45;;;;;;;6.45;3.90;;;;;;;14.39;70.21;99782.22;5002121;28;20049;-62
2023/08/15 01:50:11;;;;;;;6.78;3.65;;;;;;;14.37;70.10;99774.44;4996561;28;20069;-62
2023/08/15 01:52:38;;;;;;;7.15;4.60;;;;;;;14.38;70.20;99780.50;4994107;28;20057;-61
2023/08/15 01:55:05;;;;;;;5.60;3.88;;;;;;;14.36;71.02;99785.72;5000123;28;20523;-62
2023/08/15 01:57:32;;;;;;;8.98;4.10;;;;;;;14.34;70.06;99776.25;5004413;28;20046;-60
2023/08/15 01:59:58;;;;;;;5.82;3.78;;;;;;;14.33;70.53;99782.34;5001596;28;20415;-62
2023/08/15 02:02:25;;;;;;;10.05;4.45;;;;;;;14.31;70.63;99773.69;4989719;28;20047;-62
2023/08/15 02:04:52;;;;;;;5.32;4.05;;;;;;;14.29;71.18;99781.59;4991873;28;20061;-63
2023/08/15 02:07:18;;;;;;;8.48;5.13;;;;;;;14.27;71.01;99788.56;4992863;28;20466;-61
2023/08/15 02:09:45;;;;;;;6.85;4.20;;;;;;;14.25;71.34;99785.13;4994827;28;20055;-61
2023/08/15 02:12:12;;;;;;;6.55;4.80;;;;;;;14.23;71.36;99790.38;5000372;28;20050;-62
2023/08/15 02:14:39;;;;;;;5.90;4.03;;;;;;;14.21;71.32;99789.56;4990921;28;20050;-61
2023/08/15 02:17:05;;;;;;;7.32;5.10;;;;;;;14.20;70.96;99784.38;4996850;28;20049;-64
2023/08/15 02:19:32;;;;;;;7.53;3.88;;;;;;;14.17;71.08;99772.28;4988750;28;20050;-62
2023/08/15 02:21:59;;;;;;;8.75;4.40;;;;;;;14.18;71.02;99778.34;4993460;28;20048;-64
2023/08/15 02:24:25;;;;;;;10.15;4.57;;;;;;;14.17;71.82;99787.03;4997751;28;20053;-62
2023/08/15 02:26:52;;;;;;;8.00;4.20;;;;;;;14.15;71.20;99781.84;5004162;28;20074;-62
2023/08/15 02:29:19;;;;;;;6.78;3.83;;;;;;;14.13;71.40;99779.31;4993819;28;20049;-61
2023/08/15 02:31:47;;;;;;;7.28;3.97;;;;;;;14.13;71.54;99779.31;5004036;28;20050;-60
2023/08/15 02:34:17;;;;;;;7.28;4.72;;;;;;;14.12;70.84;99779.34;5000445;28;20050;-60
2023/08/15 02:36:46;;;;;;;5.60;4.00;;;;;;;14.11;71.20;99773.28;5001058;28;20058;-61
2023/08/15 02:39:15;;;;;;;5.38;3.83;;;;;;;14.10;71.40;99773.31;4997833;28;20051;-62
2023/08/15 02:41:43;;;;;;;4.55;3.55;;;;;;;14.09;71.34;99775.03;4998466;28;20073;-59
2023/08/15 02:44:10;;;;;;;7.90;4.00;;;;;;;14.08;71.00;99773.34;4995201;28;20058;-60
2023/08/15 02:46:36;;;;;;;6.10;3.92;;;;;;;14.09;71.67;99769.00;5001498;28;20174;-60
2023/08/15 02:49:03;;;;;;;9.57;3.00;;;;;;;14.06;71.79;99764.72;4985197;28;20519;-60
2023/08/15 02:51:30;;;;;;;7.10;3.33;;;;;;;14.08;71.59;99773.34;4983945;28;20038;-61
2023/08/15 02:53:56;;;;;;;7.30;3.88;;;;;;;14.06;71.77;99772.53;4985060;28;20058;-61
2023/08/15 02:56:23;;;;;;;6.35;4.05;;;;;;;14.05;71.37;99773.41;4985352;28;20048;-60
2023/08/15 02:58:51;;;;;;;7.28;4.20;;;;;;;14.04;71.90;99771.69;4984810;28;20081;-60
2023/08/15 03:01:18;;;;;;;14.15;4.53;;;;;;;14.03;71.13;99775.19;4984972;28;20042;-62
2023/08/15 03:03:45;;;;;;;6.95;3.97;;;;;;;14.03;72.05;99785.59;4975495;28;20050;-61
2023/08/15 03:06:11;;;;;;;7.93;4.05;;;;;;;14.01;71.77;99782.16;4979035;28;20046;-63
2023/08/15 03:08:38;;;;;;;8.63;4.53;;;;;;;14.00;72.12;99786.53;4987776;28;20053;-62
2023/08/15 03:11:05;;;;;;;7.68;4.07;;;;;;;13.98;71.62;99785.69;4987577;28;20487;-61
2023/08/15 03:13:31;;;;;;;9.90;4.95;;;;;;;13.96;72.07;99774.47;4978667;28;20110;-61
2023/08/15 03:15:58;;;;;;;7.05;4.38;;;;;;;13.94;72.09;99780.56;4984651;28;20050;-60
2023/08/15 03:18:24;;;;;;;8.52;4.25;;;;;;;13.92;72.19;99783.25;4981002;28;20127;-61
2023/08/15 03:20:59;;;;;;;10.45;3.05;;;;;;;13.89;71.33;99783.28;4982593;28;20436;-60
2023/08/15 03:23:26;;;;;;;5.90;3.63;;;;;;;13.86;72.11;99775.53;4985695;28;20105;-61
2023/08/15 03:25:56;;;;;;;7.20;3.70;;;;;;;13.84;71.62;99780.78;4976718;28;20050;-62
2023/08/15 03:28:23;;;;;;;6.07;2.65;;;;;;;13.81;72.26;99780.84;4974061;28;20419;-62
2023/08/15 03:30:49;;;;;;;8.25;3.83;;;;;;;13.79;72.32;99781.75;4987406;28;20050;-63
2023/08/15 03:33:16;;;;;;;6.97;2.65;;;;;;;13.77;71.92;99784.38;4984870;28;20428;-62
2023/08/15 03:35:45;;;;;;;7.80;4.18;;;;;;;13.77;71.85;99780.94;4978323;28;20050;-61
2023/08/15 03:38:17;;;;;;;7.05;3.65;;;;;;;13.73;71.90;99785.34;4984605;28;20054;-59
2023/08/15 03:40:45;;;;;;;7.50;4.88;;;;;;;13.72;72.77;99783.63;4979795;28;20058;-63
2023/08/15 03:43:13;;;;;;;7.13;3.90;;;;;;;13.70;72.03;99788.00;4977859;28;20700;-62
2023/08/15 03:45:40;;;;;;;5.32;3.15;;;;;;;13.69;72.02;99796.69;4987496;28;20053;-60
2023/08/15 03:48:08;;;;;;;9.55;4.20;;;;;;;13.69;71.98;99797.56;4985974;28;20116;-59
2023/08/15 03:50:36;;;;;;;8.07;3.72;;;;;;;13.67;72.37;99790.66;4984634;28;20057;-62
2023/08/15 03:53:02;;;;;;;8.27;3.75;;;;;;;13.67;72.23;99795.88;4987204;28;20555;-61
2023/08/15 03:55:30;;;;;;;8.52;4.43;;;;;;;13.66;73.09;99796.75;4979254;28;20050;-61
2023/08/15 03:57:57;;;;;;;7.47;3.83;;;;;;;13.65;72.61;99800.25;4984059;28;20113;-62
2023/08/15 04:00:24;;;;;;;9.18;4.38;;;;;;;13.62;71.80;99796.81;4979515;28;20058;-62
2023/08/15 04:02:51;;;;;;;7.75;4.60;;;;;;;13.64;72.03;99798.56;4982643;28;20042;-62
2023/08/15 04:05:18;;;;;;;5.93;3.38;;;;;;;13.62;72.22;99796.81;4981294;28;20093;-62
2023/08/15 04:07:45;;;;;;;13.32;4.40;;;;;;;13.59;71.84;99807.31;4980580;28;20047;-63
2023/08/15 04:10:13;;;;;;;6.43;3.60;;;;;;;13.58;71.96;99802.97;4977809;28;20054;-61
2023/08/15 04:12:40;;;;;;;9.57;4.05;;;;;;;13.56;71.87;99802.16;4981284;28;20048;-62
2023/08/15 04:15:07;;;;;;;9.13;3.90;;;;;;;13.55;72.22;99805.66;4984336;28;20046;-63
2023/08/15 04:17:34;;;;;;;6.57;3.42;;;;;;;13.53;71.91;99807.41;4988630;28;20050;-60
2023/08/15 04:20:01;;;;;;;7.60;3.67;;;;;;;13.52;72.51;99810.91;4984395;28;20050;-62
2023/08/15 04:22:27;;;;;;;7.20;4.22;;;;;;;13.52;72.40;99816.13;4978152;28;20053;-62
2023/08/15 04:24:54;;;;;;;6.30;4.05;;;;;;;13.50;72.35;99815.25;4978758;28;20060;-61
2023/08/15 04:27:21;;;;;;;8.23;4.07;;;;;;;13.48;72.72;99809.22;4989197;28;20042;-60
2023/08/15 04:29:48;;;;;;;5.45;3.53;;;;;;;13.46;72.22;99814.44;4982752;28;20056;-62
2023/08/15 04:32:15;;;;;;;6.13;4.45;;;;;;;13.46;72.31;99816.19;4978117;28;20045;-60
2023/08/15 04:34:42;;;;;;;6.45;4.22;;;;;;;13.44;72.51;99815.38;4977500;28;20104;-62
2023/08/15 04:37:08;;;;;;;6.68;2.75;;;;;;;13.44;72.41;99823.16;4982013;28;20463;-60
2023/08/15 04:39:35;;;;;;;8.52;4.40;;;;;;;13.43;73.00;99831.84;4991144;28;20049;-60
2023/08/15 04:42:01;;;;;;;6.43;3.70;;;;;;;13.40;73.03;99837.97;4983806;28;20042;-61
2023/08/15 04:44:28;;;;;;;8.38;3.85;;;;;;;13.41;72.41;99839.66;4978388;28;20101;-62
2023/08/15 04:46:55;;;;;;;8.00;2.05;;;;;;;13.40;72.73;99837.13;4985633;28;20713;-61
2023/08/15 04:49:21;;;;;;;6.40;3.65;;;;;;;13.39;73.18;99840.59;4984092;28;20042;-59
2023/08/15 04:51:48;;;;;;;8.70;3.92;;;;;;;13.39;72.40;99844.06;4991634;28;20052;-61
2023/08/15 04:54:14;;;;;;;6.70;4.03;;;;;;;13.37;72.28;99844.06;4982034;28;20054;-59
2023/08/15 04:56:41;;;;;;;9.80;3.70;;;;;;;13.37;72.45;99846.69;4986295;28;20046;-60
2023/08/15 04:59:08;;;;;;;5.20;3.40;;;;;;;13.37;72.56;99849.28;4985556;28;20047;-60
2023/08/15 05:01:34;;;;;;;7.45;3.38;;;;;;;13.37;72.54;99864.88;4984914;28;20057;-59
2023/08/15 05:04:01;;;;;;;8.02;3.70;;;;;;;13.37;72.54;99861.41;4980081;28;20047;-56
2023/08/15 05:06:28;;;;;;;5.93;3.53;;;;;;;13.37;72.59;99875.28;4971816;28;20054;-59
2023/08/15 05:08:54;;;;;;;8.20;3.70;;;;;;;13.37;72.93;99866.63;4989056;28;20061;-58
2023/08/15 05:11:21;;;;;;;10.90;3.88;;;;;;;13.39;73.17;99871.81;4977579;28;20047;-61
2023/08/15 05:13:47;;;;;;;7.57;4.07;;;;;;;13.39;72.81;99874.41;4978998;28;20062;-62
2023/08/15 05:16:14;;;;;;;10.23;3.17;;;;;;;13.40;73.04;99869.19;4985938;28;20597;-61
2023/08/15 05:18:42;;;;;;;6.13;3.38;;;;;;;13.43;72.43;99881.25;4970651;28;20077;-62
2023/08/15 05:21:09;;;;;;;6.85;3.65;;;;;;;13.43;72.90;99883.88;4976073;28;20042;-62
2023/08/15 05:23:35;;;;;;;9.18;3.85;;;;;;;13.45;72.83;99882.13;4985691;28;20054;-62
2023/08/15 05:26:02;;;;;;;9.68;4.00;;;;;;;13.47;72.62;99888.13;4984485;28;20054;-62
2023/08/15 05:28:29;;;;;;;8.23;3.80;;;;;;;13.49;72.60;99892.47;4979247;28;20582;-61
2023/08/15 05:30:55;;;;;;;5.53;3.13;;;;;;;13.51;73.46;99889.81;4978720;28;20051;-59
2023/08/15 05:33:22;;;;;;;7.75;3.58;;;;;;;13.53;73.89;99895.88;4968816;28;20397;-59
2023/08/15 05:35:49;;;;;;;7.30;3.95;;;;;;;13.57;73.49;99897.53;4978522;28;20066;-61
2023/08/15 05:38:15;;;;;;;8.48;4.90;;;;;;;13.73;73.20;99902.47;4982192;28;20050;-59
2023/08/15 05:40:42;;;;;;;9.52;3.95;;;;;;;13.88;73.45;99917.81;4984713;28;20523;-60
2023/08/15 05:43:09;;;;;;;12.30;3.67;;;;;;;14.06;74.45;99920.97;4979141;28;20042;-61
2023/08/15 05:45:36;;;;;;;6.75;4.30;;;;;;;14.22;74.27;99925.88;4983691;28;20539;-59
2023/08/15 05:48:03;;;;;;;10.85;3.42;;;;;;;14.35;73.97;99922.09;4982316;28;20057;-59
2023/08/15 05:50:30;;;;;;;6.07;2.78;;;;;;;14.39;73.43;99923.75;4983372;28;20070;-59
2023/08/15 05:52:57;;;;;;;9.52;2.65;;;;;;;14.38;72.86;99922.06;4982333;28;20054;-58
2023/08/15 05:55:23;;;;;;;5.30;3.38;;;;;;;14.35;73.53;99927.31;4982466;28;20046;-59
2023/08/15 05:57:50;;;;;;;5.05;3.10;;;;;;;14.33;73.16;99936.94;4983054;28;20042;-58
2023/08/15 06:00:18;;;;;;;6.88;3.55;;;;;;;14.33;72.94;99944.75;4986231;28;20050;-58
2023/08/15 06:02:45;;;;;;;7.70;3.63;;;;;;;14.32;72.89;99952.59;4979284;28;20142;-58
2023/08/15 06:05:12;;;;;;;6.90;3.35;;;;;;;14.31;72.64;99951.72;4985452;28;20471;-58
2023/08/15 06:07:40;;;;;;;8.18;3.20;;;;;;;14.32;72.90;99961.25;4979750;28;20401;-62
2023/08/15 06:10:08;;;;;;;9.30;3.08;;;;;;;14.33;73.04;99957.78;4985751;28;20524;-61
2023/08/15 06:12:34;;;;;;;6.78;3.40;;;;;;;14.34;72.68;99967.31;4981973;28;20050;-59
2023/08/15 06:15:01;;;;;;;4.25;3.08;;;;;;;14.36;72.82;99981.13;4974454;28;20106;-59
2023/08/15 06:17:27;;;;;;;8.05;2.83;;;;;;;14.39;73.07;99978.47;4979078;28;20057;-58
2023/08/15 06:19:54;;;;;;;4.88;1.20;;;;;;;14.41;73.40;99988.88;4978326;28;20443;-59
2023/08/15 06:22:21;;;;;;;5.82;2.85;;;;;;;14.45;73.74;99987.09;4981561;28;20057;-61
2023/08/15 06:24:47;;;;;;;6.10;3.05;;;;;;;14.48;73.24;99984.38;4990188;28;20077;-62
2023/08/15 06:27:14;;;;;;;5.53;3.22;;;;;;;14.53;73.03;99993.00;4981697;28;20042;-60
2023/08/15 06:29:41;;;;;;;4.65;1.92;;;;;;;14.59;72.82;99992.84;4986293;28;20462;-59
2023/08/15 06:32:08;;;;;;;5.88;3.22;;;;;;;14.63;73.03;99996.28;4982991;28;20058;-61
2023/08/15 06:34:36;;;;;;;10.02;3.28;;;;;;;14.68;73.47;99993.56;4995803;28;20494;-62
2023/08/15 06:37:02;;;;;;;5.60;2.60;;;;;;;14.74;73.19;100001.25;4981689;28;20054;-59
2023/08/15 06:39:29;;;;;;;6.55;3.55;;;;;;;14.83;73.53;100001.06;4986069;28;20046;-60
2023/08/15 06:41:56;;;;;;;5.15;3.55;;;;;;;15.15;73.25;99999.53;4983861;28;20053;-60
2023/08/15 06:44:22;;;;;;;8.15;3.72;;;;;;;15.65;73.70;100001.00;4982906;28;20495;-60
2023/08/15 06:46:52;;;;;;;5.00;3.05;;;;;;;16.21;73.59;100003.09;4988996;28;20050;-59
2023/08/15 06:49:19;;;;;;;7.50;3.40;;;;;;;16.74;73.10;99991.16;4986188;28;20038;-59
2023/08/15 06:51:46;;;;;;;7.38;2.00;;;;;;;17.22;73.54;99997.59;4982879;28;20654;-59
2023/08/15 06:54:12;;;;;;;8.82;2.88;;;;;;;17.66;72.19;100002.31;4985394;28;20047;-59
2023/08/15 06:56:39;;;;;;;3.78;3.33;;;;;;;18.09;71.55;100012.28;4990005;28;20061;-59
2023/08/15 06:59:05;;;;;;;5.03;3.40;;;;;;;18.47;70.98;100010.06;4981372;28;20054;-59
2023/08/15 07:01:32;;;;;;;5.43;2.70;;;;;;;18.81;70.63;100012.38;4984524;28;20082;-59
2023/08/15 07:03:59;;;;;;;5.68;3.08;;;;;;;19.16;70.04;100023.31;4984562;28;20412;-60
2023/08/15 07:06:26;;;;;;;7.15;2.75;;;;;;;19.50;69.61;100027.22;4988931;28;20522;-59
2023/08/15 07:08:54;;;;;;;4.40;2.85;;;;;;;19.81;68.76;100024.22;4991457;28;20045;-59
2023/08/15 07:11:21;;;;;;;4.25;2.28;;;;;;;20.10;67.55;100030.91;4983878;28;20046;-60
2023/08/15 07:13:47;;;;;;;6.03;2.67;;;;;;;20.43;67.68;100032.13;4982488;28;20105;-59
2023/08/15 07:16:14;;;;;;;4.13;2.58;;;;;;;20.76;66.74;100039.44;4981184;28;20134;-58
2023/08/15 07:18:41;;;;;;;4.63;3.13;;;;;;;21.11;66.32;100033.47;4985346;28;20047;-58
2023/08/15 07:21:08;;;;;;;4.05;2.70;;;;;;;21.44;65.83;100040.72;4983427;28;20038;-59
2023/08/15 07:23:35;;;;;;;4.05;2.55;;;;;;;21.79;64.83;100039.91;4985249;28;20051;-58
2023/08/15 07:26:02;;;;;;;3.90;3.20;;;;;;;22.16;63.84;100041.63;4987791;28;20057;-59
2023/08/15 07:28:29;;;;;;;4.80;3.42;;;;;;;22.45;63.14;100052.44;4983174;28;20046;-59
2023/08/15 07:30:56;;;;;;;6.75;3.95;;;;;;;22.75;63.10;100049.13;4988607;28;20542;-59
2023/08/15 07:33:22;;;;;;;10.88;4.97;;;;;;;23.02;61.77;100053.84;4982677;28;20078;-59
2023/08/15 07:35:49;;;;;;;9.43;3.75;;;;;;;23.27;61.29;100057.75;4975429;28;20078;-59
2023/08/15 07:38:16;;;;;;;4.88;3.90;;;;;;;23.52;61.06;100063.47;4986852;28;20049;-60
2023/08/15 07:40:43;;;;;;;6.15;3.35;;;;;;;23.72;59.36;100070.28;4985150;28;20056;-59
2023/08/15 07:43:10;;;;;;;5.78;3.92;;;;;;;23.92;59.56;100073.53;4983439;28;20503;-59
2023/08/15 07:45:37;;;;;;;3.67;3.38;;;;;;;24.15;58.77;100071.38;4984837;28;20059;-59
2023/08/15 07:48:04;;;;;;;4.95;2.78;;;;;;;24.38;58.14;100081.41;4984377;28;20097;-59
2023/08/15 07:50:31;;;;;;;6.53;4.18;;;;;;;24.67;57.64;100077.06;4985724;28;20571;-59
2023/08/15 07:52:58;;;;;;;4.13;2.97;;;;;;;24.94;57.17;100078.97;4988550;28;20061;-59
2023/08/15 07:55:27;;;;;;;2.85;2.40;;;;;;;25.22;56.80;100082.53;4983152;28;20038;-59
2023/08/15 07:57:57;;;;;;;5.28;3.33;;;;;;;25.50;55.86;100086.91;4977833;28;20055;-59
2023/08/15 08:00:24;;;;;;;3.85;2.53;;;;;;;25.76;55.70;100086.16;4981159;28;20046;-59
2023/08/15 08:02:52;;;;;;;3.85;2.28;;;;;;;26.09;55.20;100092.81;4986150;28;20053;-59
2023/08/15 08:05:19;;;;;;;4.70;2.58;;;;;;;26.38;54.20;100099.78;4985695;28;20112;-59
2023/08/15 08:07:49;;;;;;;3.92;2.58;;;;;;;26.68;53.37;100096.78;4988393;28;20109;-59
2023/08/15 08:10:15;;;;;;;4.10;2.08;;;;;;;26.91;53.04;100102.28;4987255;28;20077;-60
2023/08/15 08:12:42;;;;;;;4.10;2.25;;;;;;;26.77;52.12;100097.09;4984387;28;20081;-60
2023/08/15 08:15:09;;;;;;;4.07;2.40;;;;;;;26.41;53.07;100108.38;4976468;28;20043;-59
2023/08/15 08:17:36;;;;;;;3.45;2.53;;;;;;;26.03;52.45;100103.84;4983933;28;20052;-59
2023/08/15 08:20:12;;;;;;;3.20;2.78;;;;;;;26.08;53.09;100103.53;4978499;28;20101;-59
2023/08/15 08:22:39;;;;;;;4.05;3.05;;;;;;;26.44;52.72;100108.19;4992567;28;20052;-59
2023/08/15 08:25:16;;;;;;;3.67;2.30;;;;;;;26.77;51.37;100108.59;4986147;28;20150;-60
2023/08/15 08:27:44;;;;;;;3.85;2.45;;;;;;;27.01;51.25;100109.63;4983426;28;20046;-60
2023/08/15 08:30:12;;;;;;;4.57;2.55;;;;;;;27.23;50.19;100108.09;4983934;28;20050;-59
2023/08/15 08:32:39;;;;;;;2.90;2.03;;;;;;;27.02;51.09;100120.16;4987372;28;20072;-59
2023/08/15 08:35:06;;;;;;;3.88;2.65;;;;;;;27.01;50.95;100117.59;4981343;28;20047;-60
2023/08/15 08:37:33;;;;;;;4.43;2.70;;;;;;;27.18;50.57;100111.94;4989903;28;20093;-60
2023/08/15 08:40:00;;;;;;;3.83;2.63;;;;;;;27.30;50.20;100114.66;4982729;28;20049;-59
2023/08/15 08:42:27;;;;;;;2.90;2.65;;;;;;;27.29;50.60;100116.47;4981689;28;20051;-60
2023/08/15 08:44:55;;;;;;;4.00;2.15;;;;;;;27.45;49.92;100113.56;4982577;28;20054;-60
2023/08/15 08:47:25;;;;;;;3.17;1.63;;;;;;;27.78;49.99;100115.66;4984257;28;20070;-61
2023/08/15 08:49:53;;;;;;;2.45;2.25;;;;;;;28.12;48.47;100113.13;4985227;28;20069;-59
2023/08/15 08:52:20;;;;;;;2.78;2.55;;;;;;;28.09;48.57;100122.19;4980158;28;20050;-59
2023/08/15 08:54:48;;;;;;;3.20;2.85;;;;;;;28.07;49.14;100123.28;4982429;28;20054;-59
2023/08/15 08:57:27;;;;;;;4.72;2.53;;;;;;;27.88;47.71;100121.16;4984976;28;20097;-60
2023/08/15 08:59:57;;;;;;;2.58;2.22;;;;;;;27.54;48.66;100112.03;4986394;28;20104;-60
2023/08/15 09:02:23;;;;;;;3.08;2.00;;;;;;;27.50;48.06;100120.34;4978083;28;20051;-61
2023/08/15 09:04:52;;;;;;;4.75;2.58;;;;;;;27.52;47.89;100118.44;4980905;28;20059;-60
2023/08/15 09:07:19;;;;;;;4.00;2.17;;;;;;;27.29;48.58;100134.25;4989570;28;20052;-60
2023/08/15 09:09:46;;;;;;;2.55;2.25;;;;;;;27.04;48.33;100125.34;4980872;28;20054;-61
2023/08/15 09:12:34;;;;;;;3.08;2.35;;;;;;;26.67;48.09;100124.31;4981884;28;20419;-60
2023/08/15 09:15:04;;;;;;;2.15;1.05;;;;;;;26.90;49.03;100119.19;4976362;28;20503;-61
2023/08/15 09:17:31;;;;;;;2.67;2.47;;;;;;;27.20;48.89;100120.66;4981928;28;20522;-60
2023/08/15 09:20:15;;;;;;;2.95;2.30;;;;;;;27.29;48.51;100124.44;4979024;28;20443;-59
2023/08/15 09:22:45;;;;;;;5.15;2.78;;;;;;;27.27;48.49;100128.19;4983682;28;20051;-60
2023/08/15 09:25:15;;;;;;;3.78;2.60;;;;;;;27.56;48.43;100125.22;4976742;28;20054;-60
2023/08/15 09:27:42;;;;;;;2.75;2.20;;;;;;;27.56;48.25;100125.22;4983316;28;20039;-60
2023/08/15 09:30:12;;;;;;;4.45;3.05;;;;;;;27.55;48.00;100128.81;4979191;28;20046;-60
2023/08/15 09:32:40;;;;;;;3.22;2.17;;;;;;;27.39;47.51;100129.94;4977096;28;20051;-61
2023/08/15 09:35:10;;;;;;;3.22;2.88;;;;;;;27.19;47.94;100132.25;4980999;28;20546;-61
2023/08/15 09:37:49;;;;;;;3.72;2.53;;;;;;;27.13;48.31;100130.03;4978792;28;20065;-61
2023/08/15 09:40:26;;;;;;;3.05;2.53;;;;;;;27.24;48.98;100125.75;4988017;28;20048;-60
2023/08/15 09:42:53;;;;;;;2.90;2.55;;;;;;;27.21;48.44;100121.50;4974380;28;20388;-61
2023/08/15 09:45:20;;;;;;;4.93;3.05;;;;;;;27.08;47.66;100132.16;4978912;28;20522;-62
2023/08/15 09:47:47;;;;;;;3.95;2.58;;;;;;;26.85;47.42;100131.94;4977047;28;20050;-61
2023/08/15 09:50:16;;;;;;;4.05;2.13;;;;;;;26.59;48.59;100137.28;4985697;28;20050;-61
2023/08/15 09:52:45;;;;;;;2.75;2.55;;;;;;;26.52;48.85;100134.22;4983123;28;20062;-61
2023/08/15 09:55:16;;;;;;;7.70;2.80;;;;;;;26.51;48.28;100131.66;4988005;28;20119;-61
2023/08/15 09:57:44;;;;;;;6.03;2.55;;;;;;;26.47;49.08;100132.84;4980783;28;20511;-60
2023/08/15 10:00:13;;;;;;;3.22;2.80;;;;;;;26.64;48.95;100135.16;4987194;28;20050;-60
2023/08/15 10:02:46;;;;;;;3.05;2.20;;;;;;;26.78;48.55;100125.38;4980890;28;20573;-61
2023/08/15 10:05:17;;;;;;;2.25;2.05;;;;;;;26.77;48.45;100137.81;4984352;28;20086;-60
2023/08/15 10:07:45;;;;;;;3.58;2.53;;;;;;;26.69;47.76;100143.66;4985973;28;20057;-61
2023/08/15 10:10:15;;;;;;;2.38;2.17;;;;;;;26.84;48.22;100135.56;4977394;28;20050;-61
2023/08/15 10:12:45;;;;;;;2.40;1.92;;;;;;;27.01;48.97;100138.88;4987811;28;20698;-60
2023/08/15 10:15:13;;;;;;;5.32;2.40;;;;;;;27.04;47.45;100136.84;4979765;28;20050;-60
2023/08/15 10:17:40;;;;;;;4.45;2.42;;;;;;;27.18;49.54;100138.53;4985987;28;20051;-60
2023/08/15 10:20:10;;;;;;;2.53;2.15;;;;;;;27.43;49.30;100126.09;4987191;28;20050;-61
2023/08/15 10:22:39;;;;;;;4.00;2.35;;;;;;;27.76;48.01;100126.41;4992262;28;20054;-60
2023/08/15 10:27:59;;;;;;;3.88;1.20;;;;;;;28.20;47.75;100124.03;5027841;28;20405;-62
2023/08/15 10:38:30;;;;;;;2.40;1.00;;;;;;;28.19;47.00;100117.03;5091237;27;20379;-61
2023/08/15 10:43:38;;;;;;;2.55;2.20;;;;;;;28.35;46.34;100121.19;5068810;28;20384;-62
2023/08/15 10:46:06;;;;;;;2.80;2.60;;;;;;;28.46;46.93;100123.88;5031250;27;20054;-62
2023/08/15 10:48:42;;;;;;;1.88;1.67;;;;;;;28.71;46.04;100121.13;5015011;28;20054;-61
2023/08/15 10:51:31;;;;;;;3.25;1.98;;;;;;;28.93;45.79;100124.78;5004930;28;20111;-62
2023/08/15 10:53:59;;;;;;;2.35;2.05;;;;;;;29.14;46.52;100111.53;5011268;28;20125;-62
2023/08/15 10:56:29;;;;;;;3.80;2.58;;;;;;;29.24;45.57;100120.50;5010119;28;20046;-61
2023/08/15 10:58:57;;;;;;;2.08;1.67;;;;;;;29.32;44.53;100109.22;5010791;28;20077;-62
2023/08/15 11:01:26;;;;;;;3.25;2.28;;;;;;;29.28;44.74;100114.91;5006723;28;20137;-61
2023/08/15 11:03:56;;;;;;;3.75;1.98;;;;;;;29.22;44.40;100109.09;5005874;28;20081;-61
2023/08/15 11:06:24;;;;;;;2.90;1.88;;;;;;;29.15;43.84;100118.59;5006219;28;20111;-61
2023/08/15 11:08:55;;;;;;;2.30;2.10;;;;;;;28.96;44.24;100120.06;5000770;28;20042;-60
2023/08/15 11:11:22;;;;;;;2.22;1.75;;;;;;;28.84;44.25;100126.34;5005446;28;20124;-62
2023/08/15 11:13:51;;;;;;;2.15;1.67;;;;;;;28.85;44.82;100125.34;4996407;28;20555;-60
2023/08/15 11:16:21;;;;;;;2.35;1.58;;;;;;;28.96;44.96;100124.53;5012448;28;20354;-60
2023/08/15 11:18:48;;;;;;;2.75;1.85;;;;;;;29.10;44.46;100121.63;4996762;28;20053;-61
2023/08/15 11:21:17;;;;;;;3.47;1.40;;;;;;;29.21;43.33;100122.56;5000172;28;20152;-60
2023/08/15 11:23:45;;;;;;;2.63;2.53;;;;;;;29.23;44.58;100121.47;5004836;28;20049;-61
2023/08/15 11:26:16;;;;;;;2.33;1.92;;;;;;;29.28;43.86;100118.41;5006275;28;20108;-61
2023/08/15 11:28:43;;;;;;;2.25;1.83;;;;;;;29.38;44.46;100119.38;4997783;28;20065;-61
2023/08/15 11:31:12;;;;;;;2.33;1.75;;;;;;;29.56;43.96;100120.69;5009460;28;20052;-61
2023/08/15 11:33:42;;;;;;;2.47;1.75;;;;;;;29.66;43.40;100128.78;5015827;28;20050;-60
2023/08/15 11:36:10;;;;;;;5.25;2.10;;;;;;;29.53;43.35;100126.25;5001702;28;20049;-59
2023/08/15 11:38:38;;;;;;;3.63;1.55;;;;;;;29.34;42.42;100133.06;4991973;28;20046;-61
2023/08/15 11:41:05;;;;;;;2.78;1.95;;;;;;;29.05;42.67;100123.81;4999074;28;20046;-60
2023/08/15 11:43:34;;;;;;;2.33;2.10;;;;;;;28.75;42.96;100133.22;5009640;28;20057;-61
2023/08/15 11:46:02;;;;;;;3.20;1.98;;;;;;;28.72;42.93;100134.31;5009052;28;20049;-61
2023/08/15 11:48:31;;;;;;;3.70;1.98;;;;;;;28.82;43.92;100133.59;5006538;28;20058;-59
2023/08/15 11:50:58;;;;;;;1.92;1.40;;;;;;;28.98;44.32;100128.75;4997077;28;20097;-60
2023/08/15 11:53:25;;;;;;;5.72;1.70;;;;;;;29.15;42.93;100134.59;4998552;28;20141;-60